Flight Track Log - Related Links

Times and Time Zones

All times are in EDT time to prevent confusion due to time zone crossing. See the N193PC flight status page for this flight to view local times or setup timezone preferences in your user account.

Time Position Orientation Groundspeed Altitude Reporting Facility
EDT Latitude Longitude Course Direction KTS MPH feet Rate Location/Type
Thu 12:08:37 PM 41.9317 -71.4836 350° North 100 115 1,000  Level Boston Center
Thu 12:09:37 PM 41.9600 -71.5317 308° West 230 265 3,600 2,800 Climbing Boston Center
Thu 12:10:37 PM 41.9372 -71.6131 249° West 242 278 6,600 3,000 Climbing Boston Center
Thu 12:11:00 PM 42.1344 -71.9005 342° North  Level FlightAware Approximate
Thu 12:11:41 PM 41.9458 -71.7128 277° West 251 289 9,800  Level Boston Center
Thu 12:12:00 PM 42.2072 -71.9316 342° North  Level FlightAware Approximate
Thu 12:12:41 PM 41.9775 -71.7914 298° West 262 302 12,400  Level Boston Center
Thu 12:13:00 PM 42.2802 -71.9621 344° North  Level FlightAware Approximate
Thu 12:13:42 PM 42.0500 -71.8286 339° North 283 326 14,900  Level Boston Center
Thu 12:14:00 PM 42.3540 -71.9885 350° North  Level FlightAware Approximate
Thu 12:14:43 PM 42.1314 -71.8722 338° Northwest 289 333 17,600  Level Boston Center
Thu 12:15:47 PM 42.1944 -71.9033 340° North 290 334 19,500 1,152 Climbing Boston Center
Thu 12:16:48 PM 42.2917 -71.9556 338° Northwest 309 356 20,000 244 Climbing Boston Center
Thu 12:17:50 PM 42.3808 -72.0033 338° Northwest 336 387 20,000 293 Level Boston Center
Thu 12:18:51 PM 42.4706 -72.0492 339° North 344 396 20,600 992 Climbing Boston Center
Thu 12:19:51 PM 42.5556 -72.0956 338° Northwest 337 388 22,000 677 Climbing Boston Center
Thu 12:20:55 PM 42.6461 -72.1442 338° Northwest 351 404 22,000  Level Boston Center
Thu 12:21:56 PM 42.7408 -72.1950 338° Northwest 364 419 22,000  Level Boston Center
Thu 12:22:56 PM 42.8569 -72.2575 338° Northwest 372 428 22,000  Level Boston Center
Thu 12:23:59 PM 42.9564 -72.3097 339° North 372 428 22,000  Level Boston Center
Thu 12:25:00 PM 43.0497 -72.3614 338° Northwest 366 421 22,000  Level Boston Center
Thu 12:26:01 PM 43.1394 -72.4097 339° North 365 420 22,000  Level Boston Center
Thu 12:27:05 PM 43.2331 -72.4608 338° Northwest 365 420 22,000  Level Boston Center
Thu 12:28:05 PM 43.3267 -72.5114 339° North 365 420 22,000 -200 Level Boston Center
Thu 12:29:05 PM 43.4186 -72.5633 338° Northwest 362 417 21,600 -1,210 Descending Boston Center
Thu 12:30:09 PM 43.5317 -72.6267 338° Northwest 364 419 19,500 -1,887 Descending Boston Center
Thu 12:31:09 PM 43.6214 -72.6753 339° North 351 404 17,700 -1,785 Descending Boston Center
Thu 12:32:10 PM 43.7147 -72.7258 339° North 339 390 15,900 -1,728 Descending Boston Center
Thu 12:33:14 PM 43.7986 -72.7736 338° Northwest 333 383 14,100 -1,728 Descending Boston Center
Thu 12:34:15 PM 43.8886 -72.8239 338° Northwest 330 380 12,300 -1,561 Descending Boston Center
Thu 12:35:17 PM 43.9672 -72.8769 334° Northwest 315 362 10,900 -1,463 Descending Boston Center
Thu 12:36:18 PM 44.0458 -72.9458 328° Northwest 313 360 9,300 -984 Descending Boston Center
Thu 12:37:19 PM 44.1164 -73.0061 328° Northwest 302 348 8,900 -492 Descending Boston Center
Thu 12:38:20 PM 44.1850 -73.0636 329° Northwest 293 337 8,300 -823 Descending Boston Center
Thu 12:39:23 PM 44.2578 -73.1233 330° Northwest 286 329 7,200 -1,122 Descending Boston Center
Thu 12:40:23 PM 44.3258 -73.1817 328° Northwest 287 330 6,000 -1,230 Descending Boston Center
Thu 12:41:25 PM 44.3922 -73.2375 329° Northwest 282 325 4,700 -1,366 Descending Boston Center
Thu 12:42:26 PM 44.4614 -73.3053 325° Northwest 282 325 3,200 -871 Descending Boston Center
Thu 12:43:29 PM 44.5150 -73.3719 318° Northwest 261 300 2,900 -339 Descending Boston Center
Thu 12:44:30 PM 44.5686 -73.3892 347° North 229 264 2,500 -393 Descending Boston Center
Thu 12:45:31 PM 44.5708 -73.3133 88° East 186 214 2,100 -145 Descending Boston Center
Thu 12:46:34 PM 44.5442 -73.2697 131° Southeast 156 180 2,200 -290 Climbing Boston Center
Thu 12:47:35 PM 44.5189 -73.2278 130° Southeast 136 157 1,500 -639 Descending Boston Center
Thu 12:48:36 PM 44.4994 -73.1961 131° Southeast 113 130 900 -590 Descending Boston Center
Thu 12:49:37 PM 44.4797 -73.1642 131° Southeast 103 119 300 -590 Descending Boston Center

Login

Don't have an account? Register now (free) for customized features, flight alerts, and more!